createdAt,value
2022-08-16T00:00:05.035Z,46.7
2022-08-16T00:01:05.763Z,46.5
2022-08-16T00:02:13.123Z,46.3
2022-08-16T00:03:04.535Z,46.2
2022-08-16T00:04:05.274Z,46.6
2022-08-16T00:05:04.439Z,46.5
2022-08-16T00:06:04.421Z,46.3
2022-08-16T00:07:04.452Z,46.0
2022-08-16T00:08:05.003Z,45.9
2022-08-16T00:09:04.571Z,45.7
2022-08-16T00:10:04.429Z,45.6
2022-08-16T00:11:04.420Z,45.5
2022-08-16T00:12:04.417Z,45.4
2022-08-16T00:13:04.426Z,45.3
2022-08-16T00:14:08.608Z,45.2
2022-08-16T00:15:04.424Z,45.4
2022-08-16T00:17:01.704Z,45.3
2022-08-16T00:17:22.610Z,46.9
2022-08-16T00:18:04.424Z,45.4
2022-08-16T00:19:04.443Z,45.2
2022-08-16T00:20:04.427Z,46.0
2022-08-16T00:21:04.430Z,47.0
2022-08-16T00:22:06.814Z,46.7
2022-08-16T00:23:04.462Z,46.4
2022-08-16T00:24:04.652Z,46.1
2022-08-16T00:25:04.438Z,45.8
2022-08-16T00:26:35.392Z,45.6
2022-08-16T00:27:44.595Z,46.7
2022-08-16T00:28:05.015Z,45.9
2022-08-16T00:29:04.376Z,45.5
2022-08-16T00:30:19.257Z,45.5
2022-08-16T00:31:04.318Z,45.6
2022-08-16T00:32:06.122Z,45.4
2022-08-16T00:33:04.455Z,45.5
2022-08-16T00:34:04.595Z,45.3
2022-08-16T00:35:04.368Z,45.2
2022-08-16T00:36:04.355Z,45.1
2022-08-16T00:37:04.408Z,45.1
2022-08-16T00:38:40.110Z,45.0
2022-08-16T00:39:04.319Z,46.2
2022-08-16T00:40:04.305Z,45.4
2022-08-16T00:41:05.863Z,45.6
2022-08-16T00:42:04.286Z,45.3
2022-08-16T00:43:04.302Z,45.3
2022-08-16T00:44:05.241Z,45.2
2022-08-16T00:45:08.420Z,45.2
2022-08-16T00:46:34.365Z,45.9
2022-08-16T00:47:06.556Z,46.0
2022-08-16T00:48:04.287Z,45.7
2022-08-16T00:49:04.290Z,45.8
2022-08-16T00:50:04.298Z,45.7
2022-08-16T00:51:04.353Z,45.6
2022-08-16T00:52:04.321Z,45.5
2022-08-16T00:53:04.319Z,46.3
2022-08-16T00:54:05.460Z,47.3
2022-08-16T00:55:04.544Z,47.0
2022-08-16T00:56:05.492Z,46.7
2022-08-16T00:57:04.443Z,46.7
2022-08-16T00:58:04.297Z,46.9
2022-08-16T00:59:04.311Z,46.8
2022-08-16T01:00:04.287Z,47.3
2022-08-16T01:01:08.485Z,47.2
2022-08-16T01:02:30.780Z,47.5
2022-08-16T01:03:04.318Z,47.9
2022-08-16T01:04:05.451Z,48.2
2022-08-16T01:05:09.643Z,48.1
2022-08-16T01:06:39.654Z,48.6
2022-08-16T01:07:04.404Z,48.9
2022-08-16T01:08:34.840Z,48.4
2022-08-16T01:09:04.329Z,48.9
2022-08-16T01:10:04.305Z,49.4
2022-08-16T01:11:04.310Z,49.2
2022-08-16T01:12:04.499Z,49.1
2022-08-16T01:13:04.495Z,48.9
2022-08-16T01:14:04.298Z,48.4
2022-08-16T01:15:04.317Z,48.3
2022-08-16T01:16:04.314Z,48.4
2022-08-16T01:18:55.525Z,49.7
2022-08-16T01:19:04.216Z,49.5
2022-08-16T01:20:04.242Z,48.8
2022-08-16T01:21:04.215Z,48.4
2022-08-16T01:22:46.997Z,49.0
2022-08-16T01:23:04.258Z,51.6
2022-08-16T01:24:52.760Z,49.6
2022-08-16T01:25:04.225Z,50.2
2022-08-16T01:26:34.383Z,48.7
2022-08-16T01:27:04.251Z,48.4
2022-08-16T01:28:04.226Z,48.2
2022-08-16T01:29:04.236Z,48.9
2022-08-16T01:30:04.233Z,48.9
2022-08-16T01:31:05.637Z,49.5
2022-08-16T01:32:04.238Z,49.2
2022-08-16T01:33:15.321Z,50.1
2022-08-16T01:34:04.234Z,50.2
2022-08-16T01:35:04.221Z,49.5
2022-08-16T01:36:12.097Z,49.6
2022-08-16T01:37:04.409Z,49.0
2022-08-16T01:38:04.220Z,48.7
2022-08-16T01:39:04.227Z,49.2
2022-08-16T01:40:06.949Z,49.0
2022-08-16T01:41:05.588Z,48.8
2022-08-16T01:42:04.213Z,48.2
2022-08-16T01:43:04.219Z,48.2
2022-08-16T01:44:04.211Z,48.6
2022-08-16T01:45:04.219Z,48.4
2022-08-16T01:46:29.569Z,48.0
2022-08-16T01:47:04.237Z,48.1
2022-08-16T01:48:04.219Z,47.7
2022-08-16T01:49:06.211Z,47.9
2022-08-16T01:50:42.686Z,48.2
2022-08-16T01:51:16.974Z,49.5
2022-08-16T01:52:04.220Z,47.9
2022-08-16T01:53:04.224Z,47.7
2022-08-16T01:54:04.233Z,47.7
2022-08-16T01:55:04.234Z,47.7
2022-08-16T01:56:04.446Z,47.7
2022-08-16T01:57:04.294Z,47.5
2022-08-16T01:58:04.244Z,47.7
2022-08-16T01:59:04.229Z,47.8
2022-08-16T02:00:04.239Z,48.3
2022-08-16T02:01:04.270Z,49.1
2022-08-16T02:02:04.310Z,49.2
2022-08-16T02:03:04.227Z,49.5
2022-08-16T02:05:46.799Z,50.0
2022-08-16T02:05:56.183Z,51.5
2022-08-16T02:06:04.311Z,51.0
2022-08-16T02:07:04.216Z,49.9
2022-08-16T02:08:04.224Z,49.2
2022-08-16T02:09:05.045Z,48.6
2022-08-16T02:10:04.240Z,48.4
2022-08-16T02:11:05.331Z,48.6
2022-08-16T02:12:50.398Z,48.7
2022-08-16T02:13:04.345Z,51.3
2022-08-16T02:14:04.249Z,49.7
2022-08-16T02:15:04.239Z,50.4
2022-08-16T02:16:04.243Z,50.1
2022-08-16T02:17:04.664Z,50.3
2022-08-16T02:18:04.226Z,50.0
2022-08-16T02:19:04.230Z,49.8
2022-08-16T02:20:04.269Z,49.6
2022-08-16T02:21:04.321Z,49.5
2022-08-16T02:22:08.961Z,49.0
2022-08-16T02:23:05.706Z,49.1
2022-08-16T02:24:04.231Z,48.6
2022-08-16T02:25:04.235Z,49.6
2022-08-16T02:26:04.247Z,49.7
2022-08-16T02:27:04.215Z,49.4
2022-08-16T02:28:04.224Z,49.7
2022-08-16T02:29:04.224Z,49.5
2022-08-16T02:30:05.099Z,49.8
2022-08-16T02:31:04.231Z,50.4
2022-08-16T02:32:48.966Z,50.9
2022-08-16T02:33:04.593Z,53.1
2022-08-16T02:34:06.327Z,52.5
2022-08-16T02:35:04.247Z,52.5
2022-08-16T02:36:05.488Z,52.4
2022-08-16T02:37:04.233Z,53.6
2022-08-16T02:38:08.669Z,52.9
2022-08-16T02:39:04.274Z,53.5
2022-08-16T02:40:04.276Z,53.8
2022-08-16T02:41:09.536Z,54.1
2022-08-16T02:42:04.240Z,54.2
2022-08-16T02:43:04.298Z,54.2
2022-08-16T02:44:04.231Z,53.6
2022-08-16T02:45:04.267Z,53.7
2022-08-16T02:46:07.653Z,53.4
2022-08-16T02:47:04.231Z,53.0
2022-08-16T02:48:29.435Z,52.8
2022-08-16T02:49:04.278Z,52.7
2022-08-16T02:50:54.571Z,51.8
2022-08-16T02:51:11.253Z,53.5
2022-08-16T02:52:04.264Z,52.4
2022-08-16T02:53:04.236Z,52.3
2022-08-16T02:54:04.459Z,51.9
2022-08-16T02:55:04.235Z,52.2
2022-08-16T02:56:04.242Z,52.0
2022-08-16T02:57:04.252Z,52.1
2022-08-16T02:58:04.245Z,52.8
2022-08-16T02:59:11.678Z,52.9
2022-08-16T03:00:33.548Z,52.5
2022-08-16T03:02:56.069Z,52.2
2022-08-16T03:03:00.559Z,53.0
2022-08-16T03:03:04.721Z,52.7
2022-08-16T03:04:39.205Z,51.4
2022-08-16T03:05:05.927Z,53.1
2022-08-16T03:06:04.345Z,51.7
2022-08-16T03:07:04.390Z,51.6
2022-08-16T03:08:04.255Z,51.1
2022-08-16T03:09:04.265Z,51.0
2022-08-16T03:10:04.269Z,50.7
2022-08-16T03:11:04.404Z,50.6
2022-08-16T03:12:06.101Z,51.1
2022-08-16T03:13:12.209Z,50.9
2022-08-16T03:14:07.398Z,50.7
2022-08-16T03:15:04.253Z,50.6
2022-08-16T03:16:04.503Z,50.7
2022-08-16T03:17:04.423Z,50.3
2022-08-16T03:18:04.251Z,50.1
2022-08-16T03:19:04.270Z,50.3
2022-08-16T03:20:05.837Z,50.1
2022-08-16T03:21:04.347Z,50.9
2022-08-16T03:22:04.252Z,52.1
2022-08-16T03:23:04.248Z,52.6
2022-08-16T03:24:04.261Z,53.6
2022-08-16T03:25:04.251Z,53.6
2022-08-16T03:26:04.247Z,53.8
2022-08-16T03:27:04.277Z,53.7
2022-08-16T03:28:04.853Z,53.2
2022-08-16T03:29:04.266Z,52.9
2022-08-16T03:30:16.432Z,52.9
2022-08-16T03:31:04.380Z,52.4
2022-08-16T03:32:04.354Z,51.9
2022-08-16T03:33:04.373Z,51.8
2022-08-16T03:34:04.370Z,51.5
2022-08-16T03:35:04.353Z,51.0
2022-08-16T03:36:30.313Z,50.9
2022-08-16T03:37:04.375Z,50.9
2022-08-16T03:38:04.393Z,50.4
2022-08-16T03:39:04.335Z,50.9
2022-08-16T03:40:04.289Z,51.1
2022-08-16T03:41:04.260Z,51.3
2022-08-16T03:42:04.769Z,51.6
2022-08-16T03:43:19.978Z,51.1
2022-08-16T03:44:04.262Z,50.9
2022-08-16T03:45:04.262Z,50.5
2022-08-16T03:46:04.458Z,50.9
2022-08-16T03:47:04.346Z,50.9
2022-08-16T03:48:04.297Z,51.0
2022-08-16T03:49:04.244Z,50.9
2022-08-16T03:50:04.313Z,51.6
2022-08-16T03:51:04.248Z,51.3
2022-08-16T03:52:04.273Z,51.2
2022-08-16T03:53:05.926Z,51.0
2022-08-16T03:54:04.268Z,50.8
2022-08-16T03:56:37.836Z,51.9
2022-08-16T03:57:04.979Z,50.9
2022-08-16T03:58:04.359Z,50.4
2022-08-16T03:59:04.356Z,50.2
2022-08-16T04:00:05.586Z,50.5
2022-08-16T04:01:04.519Z,50.4
2022-08-16T04:02:10.525Z,50.2
2022-08-16T04:03:04.384Z,50.8
2022-08-16T04:04:04.366Z,50.2
2022-08-16T04:05:04.462Z,50.7
2022-08-16T04:06:04.368Z,50.6
2022-08-16T04:07:06.932Z,51.0
2022-08-16T04:08:23.011Z,51.2
2022-08-16T04:09:04.368Z,50.8
2022-08-16T04:10:35.616Z,50.4
2022-08-16T04:11:04.365Z,50.7
2022-08-16T04:12:04.376Z,50.9
2022-08-16T04:13:04.846Z,51.0
2022-08-16T04:14:08.416Z,50.6
2022-08-16T04:15:04.380Z,50.6
2022-08-16T04:16:06.468Z,50.8
2022-08-16T04:17:05.542Z,52.6
2022-08-16T04:18:04.410Z,53.1
2022-08-16T04:19:04.891Z,53.5
2022-08-16T04:20:04.388Z,53.5
2022-08-16T04:21:04.557Z,53.6
2022-08-16T04:22:08.659Z,53.1
2022-08-16T04:23:04.363Z,52.5
2022-08-16T04:24:07.931Z,52.2
2022-08-16T04:25:04.379Z,51.7
2022-08-16T04:26:04.383Z,51.1
2022-08-16T04:27:04.397Z,51.8
2022-08-16T04:28:54.531Z,51.6
2022-08-16T04:29:21.603Z,52.4
2022-08-16T04:30:04.366Z,51.3
2022-08-16T04:31:04.370Z,51.1
2022-08-16T04:32:04.381Z,51.5
2022-08-16T04:33:04.653Z,51.4
2022-08-16T04:34:04.395Z,51.3
2022-08-16T04:35:08.414Z,53.2
2022-08-16T04:36:04.729Z,53.5
2022-08-16T04:37:04.369Z,53.1
2022-08-16T04:38:10.894Z,53.2
2022-08-16T04:39:04.420Z,53.1
2022-08-16T04:40:05.438Z,53.2
2022-08-16T04:41:04.396Z,53.0
2022-08-16T04:42:11.028Z,53.2
2022-08-16T04:43:04.375Z,53.1
2022-08-16T04:44:32.299Z,52.5
2022-08-16T04:45:04.380Z,53.1
2022-08-16T04:46:04.385Z,51.8
2022-08-16T04:47:21.184Z,52.3
2022-08-16T04:48:04.365Z,53.1
2022-08-16T04:49:04.438Z,52.9
2022-08-16T04:50:04.368Z,54.4
2022-08-16T04:51:07.964Z,54.5
2022-08-16T04:52:04.374Z,54.3
2022-08-16T04:53:04.382Z,54.9
2022-08-16T04:54:04.372Z,54.5
2022-08-16T04:55:04.376Z,54.7
2022-08-16T04:56:04.372Z,54.8
2022-08-16T04:57:04.409Z,54.3
2022-08-16T04:58:04.367Z,54.2
2022-08-16T04:59:04.373Z,54.7
2022-08-16T05:00:32.077Z,54.1
2022-08-16T05:01:04.380Z,53.5
2022-08-16T05:02:04.426Z,53.9
2022-08-16T05:03:07.372Z,53.6
2022-08-16T05:04:04.384Z,54.2
2022-08-16T05:05:04.377Z,54.5
2022-08-16T05:06:06.988Z,55.0
2022-08-16T05:07:04.378Z,55.1
2022-08-16T05:08:29.961Z,55.5
2022-08-16T05:09:04.447Z,55.8
2022-08-16T05:10:36.563Z,56.1
2022-08-16T05:11:05.464Z,56.3
2022-08-16T05:12:04.395Z,55.6
2022-08-16T05:13:04.391Z,54.8
2022-08-16T05:14:07.045Z,55.1
2022-08-16T05:15:04.518Z,55.3
2022-08-16T05:16:04.419Z,55.4
2022-08-16T05:17:04.382Z,55.0
2022-08-16T05:18:04.429Z,54.9
2022-08-16T05:19:04.387Z,54.7
2022-08-16T05:20:38.712Z,55.2
2022-08-16T05:21:09.539Z,57.1
2022-08-16T05:22:04.387Z,55.7
2022-08-16T05:23:04.380Z,56.0
2022-08-16T05:24:06.125Z,55.3
2022-08-16T05:25:08.872Z,55.5
2022-08-16T05:26:04.383Z,55.5
2022-08-16T05:27:11.343Z,54.4
2022-08-16T05:28:04.386Z,54.5
2022-08-16T05:29:04.740Z,54.4
2022-08-16T05:30:34.647Z,53.7
2022-08-16T05:31:04.434Z,53.8
2022-08-16T05:32:04.384Z,54.0
2022-08-16T05:33:04.394Z,54.8
2022-08-16T05:34:04.555Z,54.6
2022-08-16T05:35:04.399Z,54.3
2022-08-16T05:36:04.388Z,53.8
2022-08-16T05:37:04.400Z,53.6
2022-08-16T05:38:04.380Z,53.7
2022-08-16T05:39:04.389Z,53.5
2022-08-16T05:40:06.331Z,53.7
2022-08-16T05:41:04.489Z,53.6
2022-08-16T05:42:04.389Z,53.3
2022-08-16T05:43:04.401Z,53.7
2022-08-16T05:44:05.461Z,53.0
2022-08-16T05:45:06.915Z,53.4
2022-08-16T05:46:04.385Z,54.0
2022-08-16T05:47:04.400Z,54.7
2022-08-16T05:48:04.385Z,54.9
2022-08-16T05:49:09.031Z,54.6
2022-08-16T05:50:04.447Z,53.8
2022-08-16T05:51:04.408Z,54.1
2022-08-16T05:52:04.401Z,54.3
2022-08-16T05:53:11.191Z,54.4
2022-08-16T05:54:11.201Z,54.1
2022-08-16T05:55:03.897Z,53.5
2022-08-16T05:56:04.873Z,53.8
2022-08-16T05:57:03.876Z,54.0
2022-08-16T05:58:03.894Z,54.1
2022-08-16T05:59:03.912Z,54.1
2022-08-16T06:00:08.857Z,53.3
2022-08-16T06:01:03.970Z,54.1
2022-08-16T06:02:06.158Z,52.9
2022-08-16T06:03:03.924Z,53.7
2022-08-16T06:04:03.883Z,53.9
2022-08-16T06:05:03.938Z,53.6
2022-08-16T06:06:03.889Z,54.1
2022-08-16T06:07:06.183Z,54.3
2022-08-16T06:08:03.887Z,53.6
2022-08-16T06:09:03.895Z,54.8
2022-08-16T06:10:03.937Z,54.4
2022-08-16T06:11:10.229Z,53.9
2022-08-16T06:12:03.929Z,53.2
2022-08-16T06:13:03.887Z,54.2
2022-08-16T06:14:03.889Z,53.7
2022-08-16T06:15:04.381Z,53.7
2022-08-16T06:16:03.873Z,52.8
2022-08-16T06:17:05.419Z,52.7
2022-08-16T06:18:03.885Z,53.3
2022-08-16T06:19:04.832Z,53.8
2022-08-16T06:20:03.926Z,53.7
2022-08-16T06:21:03.908Z,53.8
2022-08-16T06:22:03.936Z,53.5
2022-08-16T06:23:11.557Z,53.6
2022-08-16T06:24:52.824Z,53.8
2022-08-16T06:25:04.516Z,55.1
2022-08-16T06:26:03.910Z,53.8
2022-08-16T06:27:03.882Z,53.2
2022-08-16T06:28:08.796Z,53.6
2022-08-16T06:29:03.896Z,53.0
2022-08-16T06:30:03.888Z,53.6
2022-08-16T06:31:03.943Z,53.7
2022-08-16T06:32:04.904Z,54.1
2022-08-16T06:33:03.890Z,54.1
2022-08-16T06:34:03.893Z,54.0
2022-08-16T06:35:03.943Z,54.4
2022-08-16T06:36:03.907Z,53.2
2022-08-16T06:37:03.938Z,52.5
2022-08-16T06:38:03.898Z,53.1
2022-08-16T06:39:06.241Z,53.1
2022-08-16T06:40:03.918Z,53.1
2022-08-16T06:41:03.990Z,53.3
2022-08-16T06:42:03.888Z,53.5
2022-08-16T06:43:04.202Z,53.2
2022-08-16T06:44:03.898Z,53.2
2022-08-16T06:45:04.007Z,53.5
2022-08-16T06:46:31.390Z,54.3
2022-08-16T06:47:04.998Z,52.9
2022-08-16T06:48:04.522Z,53.3
2022-08-16T06:49:05.394Z,53.0
2022-08-16T06:50:04.668Z,53.5
2022-08-16T06:51:04.802Z,53.1
2022-08-16T06:52:04.838Z,52.8
2022-08-16T06:53:06.869Z,55.2
2022-08-16T06:54:04.827Z,53.3
2022-08-16T06:55:04.408Z,52.9
2022-08-16T06:56:04.813Z,52.7
2022-08-16T06:57:04.784Z,52.1
2022-08-16T06:58:08.503Z,52.2
2022-08-16T06:59:04.732Z,52.2
2022-08-16T07:00:04.928Z,52.3
2022-08-16T07:01:04.898Z,52.7
2022-08-16T07:02:04.878Z,52.4
2022-08-16T07:03:27.669Z,52.8
2022-08-16T07:04:04.896Z,52.5
2022-08-16T07:05:04.646Z,52.9
2022-08-16T07:06:05.482Z,52.8
2022-08-16T07:07:04.939Z,52.8
2022-08-16T07:08:04.963Z,53.0
2022-08-16T07:09:09.526Z,52.4
2022-08-16T07:10:08.809Z,52.2
2022-08-16T07:11:04.947Z,52.2
2022-08-16T07:12:05.487Z,52.6
2022-08-16T07:13:11.653Z,52.3
2022-08-16T07:14:24.693Z,52.4
2022-08-16T07:15:04.799Z,52.7
2022-08-16T07:16:04.855Z,51.9
2022-08-16T07:17:07.884Z,52.4
2022-08-16T07:18:04.805Z,52.3
2022-08-16T07:19:04.765Z,52.3
2022-08-16T07:20:35.158Z,52.5
2022-08-16T07:21:04.914Z,53.1
2022-08-16T07:22:04.703Z,52.0
2022-08-16T07:23:13.460Z,52.0
2022-08-16T07:24:05.969Z,51.8
2022-08-16T07:25:04.848Z,52.1
2022-08-16T07:27:54.777Z,53.2
2022-08-16T07:28:05.449Z,52.7
2022-08-16T07:29:04.903Z,52.3
2022-08-16T07:30:04.751Z,52.2
2022-08-16T07:31:04.893Z,52.2
2022-08-16T07:32:04.819Z,51.7
2022-08-16T07:33:04.873Z,51.5
2022-08-16T07:34:04.695Z,52.0
2022-08-16T07:35:04.825Z,51.8
2022-08-16T07:36:04.738Z,51.7
2022-08-16T07:37:04.876Z,51.7
2022-08-16T07:38:04.926Z,51.3
2022-08-16T07:39:04.799Z,51.3
2022-08-16T07:40:11.080Z,51.4
2022-08-16T07:41:10.194Z,51.6
2022-08-16T07:42:07.036Z,51.6
2022-08-16T07:43:04.789Z,51.6
2022-08-16T07:44:15.596Z,51.7
2022-08-16T07:45:07.499Z,51.7
2022-08-16T07:46:05.487Z,51.3
2022-08-16T07:47:05.577Z,51.7
2022-08-16T07:48:11.737Z,51.3
2022-08-16T07:49:04.684Z,51.3
2022-08-16T07:50:05.366Z,51.4
2022-08-16T07:51:09.092Z,50.9
2022-08-16T07:52:20.455Z,51.4
2022-08-16T07:53:04.858Z,51.0
2022-08-16T07:54:09.523Z,50.9
2022-08-16T07:55:04.583Z,50.9
2022-08-16T07:56:04.874Z,51.2
2022-08-16T07:57:04.863Z,50.6
2022-08-16T07:58:05.578Z,50.4
2022-08-16T07:59:04.849Z,50.2
2022-08-16T08:00:04.851Z,50.0
2022-08-16T08:01:04.942Z,50.4
2022-08-16T08:02:05.402Z,50.6
2022-08-16T08:03:04.842Z,50.4
2022-08-16T08:04:04.944Z,50.6
2022-08-16T08:05:04.862Z,50.4
2022-08-16T08:06:04.785Z,50.4
2022-08-16T08:07:08.915Z,50.3
2022-08-16T08:08:12.011Z,50.6
2022-08-16T08:09:05.301Z,51.3
2022-08-16T08:11:36.907Z,51.8
2022-08-16T08:12:05.320Z,50.9
2022-08-16T08:13:04.833Z,50.8
2022-08-16T08:14:06.662Z,50.6
2022-08-16T08:15:04.879Z,50.4
2022-08-16T08:16:04.897Z,50.4
2022-08-16T08:17:04.921Z,50.5
2022-08-16T08:18:29.902Z,50.5
2022-08-16T08:19:04.885Z,50.9
2022-08-16T08:20:04.748Z,50.3
2022-08-16T08:21:04.848Z,50.4
2022-08-16T08:22:05.913Z,50.4
2022-08-16T08:23:05.511Z,50.4
2022-08-16T08:24:04.915Z,50.2
2022-08-16T08:25:04.891Z,49.8
2022-08-16T08:26:09.886Z,49.7
2022-08-16T08:27:05.001Z,49.8
2022-08-16T08:28:05.683Z,49.7
2022-08-16T08:29:05.521Z,49.8
2022-08-16T08:30:49.682Z,49.4
2022-08-16T08:31:04.961Z,50.7
2022-08-16T08:32:58.624Z,49.9
2022-08-16T08:33:05.298Z,51.5
2022-08-16T08:34:05.062Z,49.4
2022-08-16T08:35:04.961Z,50.0
2022-08-16T08:36:05.645Z,50.0
2022-08-16T08:37:04.936Z,49.7
2022-08-16T08:38:06.245Z,49.6
2022-08-16T08:39:12.919Z,49.5
2022-08-16T08:40:05.552Z,49.6
2022-08-16T08:41:04.996Z,49.6
2022-08-16T08:42:05.541Z,49.8
2022-08-16T08:43:11.500Z,49.6
2022-08-16T08:44:29.107Z,49.8
2022-08-16T08:45:05.013Z,50.1
2022-08-16T08:46:04.864Z,49.4
2022-08-16T08:47:09.282Z,49.5
2022-08-16T08:48:05.946Z,49.2
2022-08-16T08:49:04.936Z,50.1
2022-08-16T08:50:04.979Z,49.7
2022-08-16T08:51:05.023Z,49.4
2022-08-16T08:52:08.135Z,49.2
2022-08-16T08:53:06.408Z,48.8
2022-08-16T08:54:06.961Z,49.1
2022-08-16T08:56:54.903Z,50.0
2022-08-16T08:57:05.357Z,49.6
2022-08-16T08:58:05.607Z,48.9
2022-08-16T08:59:13.404Z,48.9
2022-08-16T09:00:07.925Z,49.2
2022-08-16T09:01:04.732Z,49.0
2022-08-16T09:02:04.687Z,49.2
2022-08-16T09:03:05.000Z,49.1
2022-08-16T09:04:04.897Z,49.2
2022-08-16T09:05:15.798Z,49.1
2022-08-16T09:06:04.949Z,49.0
2022-08-16T09:07:04.976Z,49.3
2022-08-16T09:08:05.776Z,49.1
2022-08-16T09:09:04.941Z,49.0
2022-08-16T09:10:06.690Z,48.9
2022-08-16T09:11:05.032Z,49.1
2022-08-16T09:12:06.907Z,49.1
2022-08-16T09:13:05.014Z,48.9
2022-08-16T09:14:05.046Z,48.8
2022-08-16T09:15:05.085Z,48.7
2022-08-16T09:16:05.000Z,48.7
2022-08-16T09:17:14.049Z,48.5
2022-08-16T09:18:25.069Z,48.6
2022-08-16T09:20:05.062Z,48.5
2022-08-16T09:21:05.029Z,48.5
2022-08-16T09:22:05.073Z,48.4
2022-08-16T09:23:05.006Z,48.3
2022-08-16T09:24:09.813Z,48.1
2022-08-16T09:25:10.923Z,48.0
2022-08-16T09:26:45.480Z,48.4
2022-08-16T09:27:05.084Z,48.6
2022-08-16T09:28:09.407Z,48.0
2022-08-16T09:29:15.468Z,47.9
2022-08-16T09:30:33.538Z,47.9
2022-08-16T09:31:04.866Z,48.1
2022-08-16T09:32:07.625Z,47.7
2022-08-16T09:33:06.666Z,47.6
2022-08-16T09:34:05.101Z,47.5
2022-08-16T09:35:05.397Z,47.6
2022-08-16T09:36:05.229Z,47.7
2022-08-16T09:38:59.945Z,48.9
2022-08-16T09:39:04.093Z,48.8
2022-08-16T09:40:03.929Z,47.8
2022-08-16T09:41:04.039Z,47.9
2022-08-16T09:42:03.940Z,47.8
2022-08-16T09:43:03.952Z,47.7
2022-08-16T09:45:13.189Z,47.5
2022-08-16T09:45:22.334Z,49.0
2022-08-16T09:46:03.940Z,47.6
2022-08-16T09:47:03.921Z,48.1
2022-08-16T09:48:03.925Z,47.7
2022-08-16T09:49:04.479Z,47.5
2022-08-16T09:50:03.917Z,47.4
2022-08-16T09:51:03.922Z,47.3
2022-08-16T09:52:03.943Z,47.2
2022-08-16T09:53:04.331Z,47.5
2022-08-16T09:54:03.909Z,47.4
2022-08-16T09:55:03.966Z,47.1
2022-08-16T09:56:03.924Z,46.9
2022-08-16T09:57:03.926Z,46.8
2022-08-16T09:58:03.932Z,46.7
2022-08-16T09:59:07.287Z,46.8
2022-08-16T10:00:03.909Z,46.8
2022-08-16T10:01:03.918Z,47.3
2022-08-16T10:02:23.046Z,46.7
2022-08-16T10:03:03.928Z,46.8
2022-08-16T10:04:04.740Z,46.8
2022-08-16T10:05:03.962Z,46.6
2022-08-16T10:06:03.925Z,46.5
2022-08-16T10:07:15.302Z,46.2
2022-08-16T10:08:25.717Z,46.3
2022-08-16T10:09:05.571Z,46.2
2022-08-16T10:10:06.418Z,46.2
2022-08-16T10:11:03.975Z,46.6
2022-08-16T10:12:11.341Z,46.6
2022-08-16T10:13:03.940Z,46.9
2022-08-16T10:14:03.971Z,46.8
2022-08-16T10:15:03.942Z,46.5
2022-08-16T10:16:03.946Z,46.4
2022-08-16T10:17:03.914Z,46.1
2022-08-16T10:18:56.745Z,46.1
2022-08-16T10:19:10.186Z,47.8
2022-08-16T10:20:03.930Z,45.9
2022-08-16T10:21:03.922Z,45.7
2022-08-16T10:22:04.996Z,45.7
2022-08-16T10:23:07.403Z,45.7
2022-08-16T10:24:03.933Z,45.7
2022-08-16T10:25:03.918Z,45.6
2022-08-16T10:28:01.225Z,46.8
2022-08-16T10:28:32.604Z,47.0
2022-08-16T10:29:04.833Z,46.0
2022-08-16T10:30:06.386Z,45.8
2022-08-16T10:31:04.191Z,45.8
2022-08-16T10:32:03.962Z,45.6
2022-08-16T10:33:03.834Z,45.5
2022-08-16T10:34:03.846Z,45.5
2022-08-16T10:35:03.848Z,45.5
2022-08-16T10:36:04.305Z,45.5
2022-08-16T10:37:03.844Z,45.3
2022-08-16T10:38:06.657Z,45.4
2022-08-16T10:39:04.459Z,45.5
2022-08-16T10:40:03.883Z,45.4
2022-08-16T10:41:03.882Z,45.3
2022-08-16T10:42:03.944Z,45.3
2022-08-16T10:43:03.863Z,45.4
2022-08-16T10:44:03.953Z,45.3
2022-08-16T10:45:03.906Z,45.4
2022-08-16T10:46:03.850Z,45.3
2022-08-16T10:47:03.858Z,45.2
2022-08-16T10:48:04.065Z,45.0
2022-08-16T10:49:05.124Z,44.9
2022-08-16T10:50:03.837Z,44.8
2022-08-16T10:51:03.956Z,44.9
2022-08-16T10:52:18.116Z,45.0
2022-08-16T10:53:05.040Z,45.0
2022-08-16T10:54:04.960Z,44.9
2022-08-16T10:56:06.271Z,45.0
2022-08-16T10:57:04.440Z,45.8
2022-08-16T10:58:11.635Z,44.9
2022-08-16T10:59:44.015Z,44.8
2022-08-16T11:00:03.855Z,45.7
2022-08-16T11:01:43.727Z,44.8
2022-08-16T11:03:04.701Z,45.0
2022-08-16T11:05:04.555Z,44.8
2022-08-16T11:05:09.708Z,46.4
2022-08-16T11:06:06.535Z,44.9
2022-08-16T11:07:08.390Z,44.7
2022-08-16T11:08:06.907Z,44.6
2022-08-16T11:09:28.884Z,44.5
2022-08-16T11:10:57.186Z,44.5
2022-08-16T11:11:12.927Z,46.2
2022-08-16T11:12:13.783Z,44.7
2022-08-16T11:14:10.630Z,44.7
2022-08-16T11:15:12.012Z,44.6
2022-08-16T11:16:25.360Z,44.7
2022-08-16T11:17:10.731Z,44.7
2022-08-16T11:19:12.278Z,44.7
2022-08-16T11:21:03.904Z,44.8
2022-08-16T11:23:58.347Z,45.6
2022-08-16T11:24:05.307Z,45.6
2022-08-16T11:25:16.224Z,44.8
2022-08-16T11:26:22.746Z,45.9
2022-08-16T11:27:23.527Z,44.6
2022-08-16T11:28:04.311Z,44.4
2022-08-16T11:29:15.388Z,44.2
2022-08-16T11:30:05.301Z,44.1
2022-08-16T11:31:04.333Z,44.1
2022-08-16T11:32:04.515Z,44.0
2022-08-16T11:33:04.476Z,44.0
2022-08-16T11:34:04.280Z,43.9
2022-08-16T11:35:10.658Z,43.9
2022-08-16T11:36:28.641Z,43.9
2022-08-16T11:37:04.318Z,44.0
2022-08-16T11:38:23.370Z,43.9
2022-08-16T11:39:04.566Z,44.5
2022-08-16T11:40:05.953Z,44.1
2022-08-16T11:41:04.277Z,44.0
2022-08-16T11:42:16.790Z,43.9
2022-08-16T11:43:04.786Z,44.1
2022-08-16T11:44:04.295Z,43.9
2022-08-16T11:45:04.289Z,43.9
2022-08-16T11:46:45.257Z,43.8
2022-08-16T11:47:04.268Z,44.3
2022-08-16T11:48:04.377Z,43.9
2022-08-16T11:49:04.344Z,43.9
2022-08-16T11:50:04.315Z,43.8
2022-08-16T11:51:04.354Z,43.8
2022-08-16T11:52:04.308Z,43.8
2022-08-16T11:53:04.359Z,43.7
2022-08-16T11:54:05.061Z,43.7
2022-08-16T11:55:04.383Z,43.7
2022-08-16T11:56:04.321Z,43.7
2022-08-16T11:57:04.488Z,43.7
2022-08-16T11:58:04.461Z,43.6
2022-08-16T11:59:04.301Z,43.6
2022-08-16T12:00:04.370Z,43.7
2022-08-16T12:01:04.310Z,43.6
2022-08-16T12:02:31.908Z,43.5
2022-08-16T12:03:04.327Z,43.6
2022-08-16T12:04:04.458Z,43.4
2022-08-16T12:05:04.601Z,43.4
2022-08-16T12:06:04.384Z,43.2
2022-08-16T12:07:04.322Z,43.3
2022-08-16T12:08:05.350Z,43.3
2022-08-16T12:10:54.723Z,44.4
2022-08-16T12:11:06.308Z,44.4
2022-08-16T12:12:04.443Z,43.5
2022-08-16T12:13:04.553Z,43.4
2022-08-16T12:14:04.923Z,43.4
2022-08-16T12:15:04.399Z,43.4
2022-08-16T12:16:04.436Z,43.3
2022-08-16T12:17:04.449Z,43.3
2022-08-16T12:18:04.484Z,43.3
2022-08-16T12:19:04.745Z,43.4
2022-08-16T12:20:04.751Z,43.3
2022-08-16T12:21:04.501Z,43.3
2022-08-16T12:22:18.614Z,43.4
2022-08-16T12:23:05.489Z,43.4
2022-08-16T12:24:05.806Z,43.7
2022-08-16T12:25:04.464Z,44.1
2022-08-16T12:26:10.360Z,44.2
2022-08-16T12:27:04.479Z,44.2
2022-08-16T12:28:04.524Z,44.2
2022-08-16T12:29:04.475Z,44.1
2022-08-16T12:30:04.464Z,44.1
2022-08-16T12:31:04.485Z,43.9
2022-08-16T12:32:27.145Z,43.8
2022-08-16T12:33:04.446Z,44.0
2022-08-16T12:34:04.716Z,43.8
2022-08-16T12:35:04.470Z,43.8
2022-08-16T12:36:04.491Z,43.8
2022-08-16T12:37:10.424Z,43.7
2022-08-16T12:38:35.400Z,43.7
2022-08-16T12:39:04.646Z,43.8
2022-08-16T12:40:04.626Z,43.6
2022-08-16T12:41:05.595Z,43.5
2022-08-16T12:42:05.566Z,43.5
2022-08-16T12:43:04.407Z,43.5
2022-08-16T12:44:04.502Z,43.5
2022-08-16T12:45:04.474Z,43.4
2022-08-16T12:46:04.471Z,43.2
2022-08-16T12:47:04.423Z,43.2
2022-08-16T12:48:32.587Z,43.2
2022-08-16T12:49:04.476Z,43.4
2022-08-16T12:50:04.432Z,43.2
2022-08-16T12:51:04.488Z,43.1
2022-08-16T12:52:05.517Z,43.2
2022-08-16T12:53:04.478Z,43.1
2022-08-16T12:54:04.418Z,43.0
2022-08-16T12:55:04.429Z,43.0
2022-08-16T12:56:04.442Z,42.9
2022-08-16T12:58:48.762Z,42.8
2022-08-16T12:58:55.853Z,43.8
2022-08-16T12:59:04.472Z,43.3
2022-08-16T13:00:04.477Z,42.4
2022-08-16T13:01:04.473Z,42.3
2022-08-16T13:02:04.463Z,42.2
2022-08-16T13:03:04.420Z,42.2
2022-08-16T13:04:12.115Z,42.1
2022-08-16T13:05:12.063Z,42.0
2022-08-16T13:06:04.053Z,41.6
2022-08-16T13:07:03.965Z,41.7
2022-08-16T13:08:04.055Z,41.7
2022-08-16T13:09:03.940Z,41.7
2022-08-16T13:10:20.799Z,41.7
2022-08-16T13:11:03.885Z,41.7
2022-08-16T13:12:04.361Z,41.4
2022-08-16T13:13:03.885Z,41.4
2022-08-16T13:14:05.279Z,41.4
2022-08-16T13:15:03.893Z,41.4
2022-08-16T13:16:10.775Z,41.4
2022-08-16T13:17:05.189Z,41.4
2022-08-16T13:18:11.144Z,41.3
2022-08-16T13:19:03.930Z,41.3
2022-08-16T13:20:07.615Z,41.1
2022-08-16T13:21:03.879Z,41.1
2022-08-16T13:22:03.945Z,41.0
2022-08-16T13:23:03.886Z,41.0
2022-08-16T13:24:04.217Z,40.9
2022-08-16T13:25:03.917Z,40.9
2022-08-16T13:26:03.898Z,40.9
2022-08-16T13:27:03.885Z,41.0
2022-08-16T13:28:04.662Z,41.0
2022-08-16T13:29:03.892Z,41.1
2022-08-16T13:30:21.657Z,41.1
2022-08-16T13:31:03.890Z,41.2
2022-08-16T13:32:03.952Z,40.9
2022-08-16T13:33:10.411Z,40.9